sensor_id;sensor_type;location;lat;lon;timestamp;P1;durP1;ratioP1;P2;durP2;ratioP2
54937;SDS011;52756;52.826;6.214;2023-11-19T00:00:26;38.33;;;18.65;;
54937;SDS011;52756;52.826;6.214;2023-11-19T00:02:52;44.88;;;20.45;;
54937;SDS011;52756;52.826;6.214;2023-11-19T00:05:18;45.90;;;18.05;;
54937;SDS011;52756;52.826;6.214;2023-11-19T00:07:43;32.00;;;15.93;;
54937;SDS011;52756;52.826;6.214;2023-11-19T00:10:10;43.78;;;16.10;;
54937;SDS011;52756;52.826;6.214;2023-11-19T00:12:41;35.15;;;14.90;;
54937;SDS011;52756;52.826;6.214;2023-11-19T00:15:09;39.00;;;14.00;;
54937;SDS011;52756;52.826;6.214;2023-11-19T00:17:39;37.53;;;12.68;;
54937;SDS011;52756;52.826;6.214;2023-11-19T00:20:09;36.63;;;11.52;;
54937;SDS011;52756;52.826;6.214;2023-11-19T00:22:39;34.00;;;11.00;;
54937;SDS011;52756;52.826;6.214;2023-11-19T00:25:05;31.92;;;9.93;;
54937;SDS011;52756;52.826;6.214;2023-11-19T00:27:31;33.13;;;9.90;;
54937;SDS011;52756;52.826;6.214;2023-11-19T00:29:57;30.60;;;9.80;;
54937;SDS011;52756;52.826;6.214;2023-11-19T00:32:22;34.50;;;10.20;;
54937;SDS011;52756;52.826;6.214;2023-11-19T00:34:48;31.58;;;9.38;;
54937;SDS011;52756;52.826;6.214;2023-11-19T00:37:14;26.63;;;8.45;;
54937;SDS011;52756;52.826;6.214;2023-11-19T00:39:43;36.13;;;7.90;;
54937;SDS011;52756;52.826;6.214;2023-11-19T00:42:09;36.53;;;8.48;;
54937;SDS011;52756;52.826;6.214;2023-11-19T00:44:35;32.67;;;7.13;;
54937;SDS011;52756;52.826;6.214;2023-11-19T00:47:01;38.45;;;8.35;;
54937;SDS011;52756;52.826;6.214;2023-11-19T00:49:27;35.20;;;7.70;;
54937;SDS011;52756;52.826;6.214;2023-11-19T00:51:52;31.80;;;7.57;;
54937;SDS011;52756;52.826;6.214;2023-11-19T00:54:18;30.20;;;6.47;;
54937;SDS011;52756;52.826;6.214;2023-11-19T00:56:44;38.38;;;7.20;;
54937;SDS011;52756;52.826;6.214;2023-11-19T00:59:10;32.10;;;6.45;;
54937;SDS011;52756;52.826;6.214;2023-11-19T01:01:35;26.20;;;6.60;;
54937;SDS011;52756;52.826;6.214;2023-11-19T01:04:01;35.45;;;6.57;;
54937;SDS011;52756;52.826;6.214;2023-11-19T01:06:30;30.02;;;6.05;;
54937;SDS011;52756;52.826;6.214;2023-11-19T01:08:56;34.42;;;5.90;;
54937;SDS011;52756;52.826;6.214;2023-11-19T01:11:22;32.20;;;6.60;;
54937;SDS011;52756;52.826;6.214;2023-11-19T01:13:48;32.85;;;6.90;;
54937;SDS011;52756;52.826;6.214;2023-11-19T01:16:15;30.85;;;6.45;;
54937;SDS011;52756;52.826;6.214;2023-11-19T01:18:40;30.23;;;6.93;;
54937;SDS011;52756;52.826;6.214;2023-11-19T01:21:06;32.78;;;6.43;;
54937;SDS011;52756;52.826;6.214;2023-11-19T01:23:32;39.60;;;5.93;;
54937;SDS011;52756;52.826;6.214;2023-11-19T01:26:00;34.45;;;5.80;;
54937;SDS011;52756;52.826;6.214;2023-11-19T01:28:26;40.88;;;7.38;;
54937;SDS011;52756;52.826;6.214;2023-11-19T01:30:51;30.80;;;6.20;;
54937;SDS011;52756;52.826;6.214;2023-11-19T01:33:17;31.50;;;5.97;;
54937;SDS011;52756;52.826;6.214;2023-11-19T01:35:43;33.03;;;5.97;;
54937;SDS011;52756;52.826;6.214;2023-11-19T01:38:08;27.38;;;5.45;;
54937;SDS011;52756;52.826;6.214;2023-11-19T01:40:34;43.40;;;7.20;;
54937;SDS011;52756;52.826;6.214;2023-11-19T01:43:01;30.98;;;6.78;;
54937;SDS011;52756;52.826;6.214;2023-11-19T01:45:28;38.70;;;6.22;;
54937;SDS011;52756;52.826;6.214;2023-11-19T01:47:58;42.83;;;6.85;;
54937;SDS011;52756;52.826;6.214;2023-11-19T01:50:28;30.55;;;5.68;;
54937;SDS011;52756;52.826;6.214;2023-11-19T01:52:55;42.10;;;6.38;;
54937;SDS011;52756;52.826;6.214;2023-11-19T01:55:22;29.73;;;5.90;;
54937;SDS011;52756;52.826;6.214;2023-11-19T01:57:50;30.45;;;5.57;;
54937;SDS011;52756;52.826;6.214;2023-11-19T02:00:17;36.20;;;6.82;;
54937;SDS011;52756;52.826;6.214;2023-11-19T02:02:44;39.65;;;7.03;;
54937;SDS011;52756;52.826;6.214;2023-11-19T02:05:12;31.45;;;4.95;;
54937;SDS011;52756;52.826;6.214;2023-11-19T02:07:38;41.03;;;6.57;;
54937;SDS011;52756;52.826;6.214;2023-11-19T02:10:05;29.00;;;6.45;;
54937;SDS011;52756;52.826;6.214;2023-11-19T02:12:37;33.45;;;6.85;;
54937;SDS011;52756;52.826;6.214;2023-11-19T02:15:07;33.05;;;6.90;;
54937;SDS011;52756;52.826;6.214;2023-11-19T02:17:34;32.72;;;5.32;;
54937;SDS011;52756;52.826;6.214;2023-11-19T02:20:02;33.97;;;6.95;;
54937;SDS011;52756;52.826;6.214;2023-11-19T02:22:31;39.75;;;6.57;;
54937;SDS011;52756;52.826;6.214;2023-11-19T02:24:58;45.53;;;8.50;;
54937;SDS011;52756;52.826;6.214;2023-11-19T02:27:31;33.15;;;6.10;;
54937;SDS011;52756;52.826;6.214;2023-11-19T02:30:16;31.58;;;5.57;;
54937;SDS011;52756;52.826;6.214;2023-11-19T02:32:42;29.42;;;6.75;;
54937;SDS011;52756;52.826;6.214;2023-11-19T02:35:07;44.08;;;7.70;;
54937;SDS011;52756;52.826;6.214;2023-11-19T02:37:37;25.50;;;5.43;;
54937;SDS011;52756;52.826;6.214;2023-11-19T02:40:04;34.22;;;6.65;;
54937;SDS011;52756;52.826;6.214;2023-11-19T02:42:30;33.13;;;5.80;;
54937;SDS011;52756;52.826;6.214;2023-11-19T02:44:56;46.15;;;7.03;;
54937;SDS011;52756;52.826;6.214;2023-11-19T02:47:22;32.95;;;6.13;;
54937;SDS011;52756;52.826;6.214;2023-11-19T02:49:49;30.88;;;6.30;;
54937;SDS011;52756;52.826;6.214;2023-11-19T02:52:15;37.20;;;6.70;;
54937;SDS011;52756;52.826;6.214;2023-11-19T02:54:41;32.15;;;6.07;;
54937;SDS011;52756;52.826;6.214;2023-11-19T02:57:08;41.42;;;7.32;;
54937;SDS011;52756;52.826;6.214;2023-11-19T02:59:37;31.80;;;5.63;;
54937;SDS011;52756;52.826;6.214;2023-11-19T03:02:07;39.20;;;6.78;;
54937;SDS011;52756;52.826;6.214;2023-11-19T03:04:36;36.63;;;7.10;;
54937;SDS011;52756;52.826;6.214;2023-11-19T03:07:04;33.63;;;6.47;;
54937;SDS011;52756;52.826;6.214;2023-11-19T03:09:32;32.35;;;5.93;;
54937;SDS011;52756;52.826;6.214;2023-11-19T03:11:59;32.63;;;6.00;;
54937;SDS011;52756;52.826;6.214;2023-11-19T03:14:24;47.10;;;8.55;;
54937;SDS011;52756;52.826;6.214;2023-11-19T03:16:50;40.20;;;7.05;;
54937;SDS011;52756;52.826;6.214;2023-11-19T03:19:16;44.85;;;7.28;;
54937;SDS011;52756;52.826;6.214;2023-11-19T03:21:42;33.75;;;7.07;;
54937;SDS011;52756;52.826;6.214;2023-11-19T03:24:07;42.40;;;7.85;;
54937;SDS011;52756;52.826;6.214;2023-11-19T03:26:33;26.95;;;5.65;;
54937;SDS011;52756;52.826;6.214;2023-11-19T03:29:00;45.78;;;8.18;;
54937;SDS011;52756;52.826;6.214;2023-11-19T03:31:26;38.40;;;7.00;;
54937;SDS011;52756;52.826;6.214;2023-11-19T03:33:52;37.60;;;6.78;;
54937;SDS011;52756;52.826;6.214;2023-11-19T03:36:17;42.08;;;7.63;;
54937;SDS011;52756;52.826;6.214;2023-11-19T03:38:43;41.50;;;7.30;;
54937;SDS011;52756;52.826;6.214;2023-11-19T03:41:12;38.97;;;6.95;;
54937;SDS011;52756;52.826;6.214;2023-11-19T03:43:38;32.85;;;7.00;;
54937;SDS011;52756;52.826;6.214;2023-11-19T03:46:05;41.38;;;7.60;;
54937;SDS011;52756;52.826;6.214;2023-11-19T03:48:40;44.15;;;8.25;;
54937;SDS011;52756;52.826;6.214;2023-11-19T03:51:06;31.52;;;6.68;;
54937;SDS011;52756;52.826;6.214;2023-11-19T03:53:31;39.35;;;7.22;;
54937;SDS011;52756;52.826;6.214;2023-11-19T03:55:57;33.63;;;6.43;;
54937;SDS011;52756;52.826;6.214;2023-11-19T03:58:22;50.22;;;8.73;;
54937;SDS011;52756;52.826;6.214;2023-11-19T04:00:48;38.75;;;7.88;;
54937;SDS011;52756;52.826;6.214;2023-11-19T04:03:13;37.72;;;6.93;;
54937;SDS011;52756;52.826;6.214;2023-11-19T04:05:39;37.78;;;6.68;;
54937;SDS011;52756;52.826;6.214;2023-11-19T04:08:05;42.03;;;8.52;;
54937;SDS011;52756;52.826;6.214;2023-11-19T04:10:30;42.75;;;8.02;;
54937;SDS011;52756;52.826;6.214;2023-11-19T04:12:56;44.78;;;7.28;;
54937;SDS011;52756;52.826;6.214;2023-11-19T04:15:21;40.60;;;8.10;;
54937;SDS011;52756;52.826;6.214;2023-11-19T04:17:47;43.72;;;8.13;;
54937;SDS011;52756;52.826;6.214;2023-11-19T04:20:13;45.78;;;8.48;;
54937;SDS011;52756;52.826;6.214;2023-11-19T04:22:39;39.20;;;7.97;;
54937;SDS011;52756;52.826;6.214;2023-11-19T04:25:05;41.03;;;7.78;;
54937;SDS011;52756;52.826;6.214;2023-11-19T04:27:31;51.05;;;9.27;;
54937;SDS011;52756;52.826;6.214;2023-11-19T04:29:57;51.67;;;8.85;;
54937;SDS011;52756;52.826;6.214;2023-11-19T04:32:23;49.17;;;8.90;;
54937;SDS011;52756;52.826;6.214;2023-11-19T04:34:50;45.50;;;8.38;;
54937;SDS011;52756;52.826;6.214;2023-11-19T04:37:16;30.77;;;5.82;;
54937;SDS011;52756;52.826;6.214;2023-11-19T04:39:43;43.95;;;9.02;;
54937;SDS011;52756;52.826;6.214;2023-11-19T04:42:09;39.65;;;7.68;;
54937;SDS011;52756;52.826;6.214;2023-11-19T04:44:35;40.83;;;7.32;;
54937;SDS011;52756;52.826;6.214;2023-11-19T04:47:01;42.08;;;7.70;;
54937;SDS011;52756;52.826;6.214;2023-11-19T04:49:26;49.58;;;8.88;;
54937;SDS011;52756;52.826;6.214;2023-11-19T04:51:52;41.17;;;7.28;;
54937;SDS011;52756;52.826;6.214;2023-11-19T04:54:18;41.88;;;7.80;;
54937;SDS011;52756;52.826;6.214;2023-11-19T04:56:47;46.70;;;8.45;;
54937;SDS011;52756;52.826;6.214;2023-11-19T04:59:13;38.13;;;6.95;;
54937;SDS011;52756;52.826;6.214;2023-11-19T05:01:39;44.50;;;8.27;;
54937;SDS011;52756;52.826;6.214;2023-11-19T05:04:05;39.03;;;7.45;;
54937;SDS011;52756;52.826;6.214;2023-11-19T05:06:32;37.13;;;7.20;;
54937;SDS011;52756;52.826;6.214;2023-11-19T05:08:58;50.88;;;8.52;;
54937;SDS011;52756;52.826;6.214;2023-11-19T05:11:35;43.33;;;8.55;;
54937;SDS011;52756;52.826;6.214;2023-11-19T05:14:04;36.40;;;7.70;;
54937;SDS011;52756;52.826;6.214;2023-11-19T05:16:31;43.28;;;8.60;;
54937;SDS011;52756;52.826;6.214;2023-11-19T05:18:56;39.90;;;7.80;;
54937;SDS011;52756;52.826;6.214;2023-11-19T05:21:22;41.75;;;7.75;;
54937;SDS011;52756;52.826;6.214;2023-11-19T05:23:48;41.08;;;6.60;;
54937;SDS011;52756;52.826;6.214;2023-11-19T05:26:18;36.67;;;7.38;;
54937;SDS011;52756;52.826;6.214;2023-11-19T05:28:47;44.97;;;7.78;;
54937;SDS011;52756;52.826;6.214;2023-11-19T05:31:13;40.67;;;8.75;;
54937;SDS011;52756;52.826;6.214;2023-11-19T05:33:39;37.78;;;7.40;;
54937;SDS011;52756;52.826;6.214;2023-11-19T05:36:05;35.28;;;7.85;;
54937;SDS011;52756;52.826;6.214;2023-11-19T05:38:33;40.03;;;8.40;;
54937;SDS011;52756;52.826;6.214;2023-11-19T05:41:02;41.25;;;8.30;;
54937;SDS011;52756;52.826;6.214;2023-11-19T05:43:27;45.60;;;8.50;;
54937;SDS011;52756;52.826;6.214;2023-11-19T05:45:53;42.92;;;8.65;;
54937;SDS011;52756;52.826;6.214;2023-11-19T05:48:19;32.80;;;6.75;;
54937;SDS011;52756;52.826;6.214;2023-11-19T05:50:44;46.50;;;8.50;;
54937;SDS011;52756;52.826;6.214;2023-11-19T05:53:10;38.13;;;7.85;;
54937;SDS011;52756;52.826;6.214;2023-11-19T05:55:36;41.42;;;7.78;;
54937;SDS011;52756;52.826;6.214;2023-11-19T05:58:10;34.85;;;7.70;;
54937;SDS011;52756;52.826;6.214;2023-11-19T06:00:37;43.83;;;9.27;;
54937;SDS011;52756;52.826;6.214;2023-11-19T06:03:09;42.55;;;8.68;;
54937;SDS011;52756;52.826;6.214;2023-11-19T06:05:35;35.55;;;7.45;;
54937;SDS011;52756;52.826;6.214;2023-11-19T06:08:00;37.63;;;6.85;;
54937;SDS011;52756;52.826;6.214;2023-11-19T06:10:26;46.25;;;8.25;;
54937;SDS011;52756;52.826;6.214;2023-11-19T06:12:57;36.03;;;7.13;;
54937;SDS011;52756;52.826;6.214;2023-11-19T06:15:24;38.38;;;7.22;;
54937;SDS011;52756;52.826;6.214;2023-11-19T06:17:53;39.20;;;7.07;;
54937;SDS011;52756;52.826;6.214;2023-11-19T06:20:20;34.50;;;6.18;;
54937;SDS011;52756;52.826;6.214;2023-11-19T06:22:48;37.83;;;9.15;;
54937;SDS011;52756;52.826;6.214;2023-11-19T06:25:14;36.05;;;7.63;;
54937;SDS011;52756;52.826;6.214;2023-11-19T06:27:43;37.40;;;7.28;;
54937;SDS011;52756;52.826;6.214;2023-11-19T06:30:08;38.92;;;7.82;;
54937;SDS011;52756;52.826;6.214;2023-11-19T06:32:34;34.67;;;6.63;;
54937;SDS011;52756;52.826;6.214;2023-11-19T06:35:00;35.90;;;7.40;;
54937;SDS011;52756;52.826;6.214;2023-11-19T06:37:26;36.72;;;7.53;;
54937;SDS011;52756;52.826;6.214;2023-11-19T06:39:52;40.35;;;7.85;;
54937;SDS011;52756;52.826;6.214;2023-11-19T06:42:17;35.83;;;6.85;;
54937;SDS011;52756;52.826;6.214;2023-11-19T06:44:43;38.42;;;7.63;;
54937;SDS011;52756;52.826;6.214;2023-11-19T06:47:09;35.38;;;7.57;;
54937;SDS011;52756;52.826;6.214;2023-11-19T06:49:34;45.08;;;7.43;;
54937;SDS011;52756;52.826;6.214;2023-11-19T06:52:00;28.95;;;7.00;;
54937;SDS011;52756;52.826;6.214;2023-11-19T06:54:25;37.10;;;6.82;;
54937;SDS011;52756;52.826;6.214;2023-11-19T06:56:51;35.72;;;6.25;;
54937;SDS011;52756;52.826;6.214;2023-11-19T06:59:17;39.90;;;8.13;;
54937;SDS011;52756;52.826;6.214;2023-11-19T07:01:42;33.78;;;7.53;;
54937;SDS011;52756;52.826;6.214;2023-11-19T07:04:10;37.78;;;7.10;;
54937;SDS011;52756;52.826;6.214;2023-11-19T07:06:39;32.58;;;7.20;;
54937;SDS011;52756;52.826;6.214;2023-11-19T07:09:07;34.15;;;7.20;;
54937;SDS011;52756;52.826;6.214;2023-11-19T07:11:37;29.00;;;6.45;;
54937;SDS011;52756;52.826;6.214;2023-11-19T07:14:06;37.58;;;7.95;;
54937;SDS011;52756;52.826;6.214;2023-11-19T07:16:33;40.50;;;7.90;;
54937;SDS011;52756;52.826;6.214;2023-11-19T07:19:05;49.83;;;8.07;;
54937;SDS011;52756;52.826;6.214;2023-11-19T07:21:31;34.30;;;8.20;;
54937;SDS011;52756;52.826;6.214;2023-11-19T07:23:58;36.88;;;8.25;;
54937;SDS011;52756;52.826;6.214;2023-11-19T07:26:24;37.55;;;7.72;;
54937;SDS011;52756;52.826;6.214;2023-11-19T07:28:50;33.13;;;7.00;;
54937;SDS011;52756;52.826;6.214;2023-11-19T07:31:16;39.03;;;7.53;;
54937;SDS011;52756;52.826;6.214;2023-11-19T07:33:44;42.33;;;9.27;;
54937;SDS011;52756;52.826;6.214;2023-11-19T07:36:11;41.08;;;6.75;;
54937;SDS011;52756;52.826;6.214;2023-11-19T07:38:37;39.85;;;7.38;;
54937;SDS011;52756;52.826;6.214;2023-11-19T07:41:03;29.67;;;8.27;;
54937;SDS011;52756;52.826;6.214;2023-11-19T07:43:30;37.30;;;7.10;;
54937;SDS011;52756;52.826;6.214;2023-11-19T07:45:56;31.45;;;7.00;;
54937;SDS011;52756;52.826;6.214;2023-11-19T07:48:24;36.80;;;7.32;;
54937;SDS011;52756;52.826;6.214;2023-11-19T07:50:50;41.55;;;7.80;;
54937;SDS011;52756;52.826;6.214;2023-11-19T07:53:17;42.30;;;8.38;;
54937;SDS011;52756;52.826;6.214;2023-11-19T07:55:43;37.10;;;8.05;;
54937;SDS011;52756;52.826;6.214;2023-11-19T07:58:09;41.92;;;7.82;;
54937;SDS011;52756;52.826;6.214;2023-11-19T08:00:38;34.05;;;6.40;;
54937;SDS011;52756;52.826;6.214;2023-11-19T08:03:04;34.55;;;6.72;;
54937;SDS011;52756;52.826;6.214;2023-11-19T08:05:32;36.00;;;7.45;;
54937;SDS011;52756;52.826;6.214;2023-11-19T08:07:58;37.58;;;8.18;;
54937;SDS011;52756;52.826;6.214;2023-11-19T08:10:23;37.53;;;7.00;;
54937;SDS011;52756;52.826;6.214;2023-11-19T08:12:49;38.45;;;7.75;;
54937;SDS011;52756;52.826;6.214;2023-11-19T08:15:15;34.05;;;7.43;;
54937;SDS011;52756;52.826;6.214;2023-11-19T08:17:41;36.30;;;7.18;;
54937;SDS011;52756;52.826;6.214;2023-11-19T08:20:08;35.20;;;7.00;;
54937;SDS011;52756;52.826;6.214;2023-11-19T08:22:37;31.48;;;6.43;;
54937;SDS011;52756;52.826;6.214;2023-11-19T08:25:04;28.65;;;6.60;;
54937;SDS011;52756;52.826;6.214;2023-11-19T08:27:30;37.38;;;6.75;;
54937;SDS011;52756;52.826;6.214;2023-11-19T08:29:56;37.58;;;7.47;;
54937;SDS011;52756;52.826;6.214;2023-11-19T08:32:25;38.13;;;6.80;;
54937;SDS011;52756;52.826;6.214;2023-11-19T08:34:51;37.75;;;7.78;;
54937;SDS011;52756;52.826;6.214;2023-11-19T08:37:17;33.83;;;6.60;;
54937;SDS011;52756;52.826;6.214;2023-11-19T08:39:45;42.25;;;7.18;;
54937;SDS011;52756;52.826;6.214;2023-11-19T08:42:14;35.25;;;6.30;;
54937;SDS011;52756;52.826;6.214;2023-11-19T08:44:41;32.45;;;6.30;;
54937;SDS011;52756;52.826;6.214;2023-11-19T08:47:08;34.78;;;7.75;;
54937;SDS011;52756;52.826;6.214;2023-11-19T08:49:37;38.22;;;6.57;;
54937;SDS011;52756;52.826;6.214;2023-11-19T08:52:04;33.42;;;6.90;;
54937;SDS011;52756;52.826;6.214;2023-11-19T08:54:30;34.70;;;6.95;;
54937;SDS011;52756;52.826;6.214;2023-11-19T08:56:55;35.78;;;7.60;;
54937;SDS011;52756;52.826;6.214;2023-11-19T08:59:21;34.92;;;6.45;;
54937;SDS011;52756;52.826;6.214;2023-11-19T09:01:46;33.65;;;7.30;;
54937;SDS011;52756;52.826;6.214;2023-11-19T09:04:12;30.20;;;7.32;;
54937;SDS011;52756;52.826;6.214;2023-11-19T09:06:39;33.38;;;7.15;;
54937;SDS011;52756;52.826;6.214;2023-11-19T09:09:05;30.40;;;6.65;;
54937;SDS011;52756;52.826;6.214;2023-11-19T09:11:31;34.08;;;7.97;;
54937;SDS011;52756;52.826;6.214;2023-11-19T09:13:57;31.73;;;6.80;;
54937;SDS011;52756;52.826;6.214;2023-11-19T09:16:22;33.08;;;6.18;;
54937;SDS011;52756;52.826;6.214;2023-11-19T09:18:48;36.78;;;8.13;;
54937;SDS011;52756;52.826;6.214;2023-11-19T09:21:14;40.70;;;7.88;;
54937;SDS011;52756;52.826;6.214;2023-11-19T09:23:39;36.40;;;6.75;;
54937;SDS011;52756;52.826;6.214;2023-11-19T09:26:05;30.52;;;7.18;;
54937;SDS011;52756;52.826;6.214;2023-11-19T09:28:33;38.50;;;7.85;;
54937;SDS011;52756;52.826;6.214;2023-11-19T09:30:58;27.73;;;5.97;;
54937;SDS011;52756;52.826;6.214;2023-11-19T09:33:24;36.55;;;7.15;;
54937;SDS011;52756;52.826;6.214;2023-11-19T09:35:49;34.65;;;6.43;;
54937;SDS011;52756;52.826;6.214;2023-11-19T09:38:15;32.60;;;6.93;;
54937;SDS011;52756;52.826;6.214;2023-11-19T09:40:42;37.58;;;6.50;;
54937;SDS011;52756;52.826;6.214;2023-11-19T09:43:07;35.20;;;7.25;;
54937;SDS011;52756;52.826;6.214;2023-11-19T09:45:38;31.15;;;6.18;;
54937;SDS011;52756;52.826;6.214;2023-11-19T09:48:18;32.53;;;6.38;;
54937;SDS011;52756;52.826;6.214;2023-11-19T09:50:45;35.35;;;6.55;;
54937;SDS011;52756;52.826;6.214;2023-11-19T09:53:12;28.60;;;5.85;;
54937;SDS011;52756;52.826;6.214;2023-11-19T09:55:39;27.52;;;6.20;;
54937;SDS011;52756;52.826;6.214;2023-11-19T09:58:05;36.80;;;7.45;;
54937;SDS011;52756;52.826;6.214;2023-11-19T10:00:32;32.22;;;6.78;;
54937;SDS011;52756;52.826;6.214;2023-11-19T10:02:58;33.00;;;6.90;;
54937;SDS011;52756;52.826;6.214;2023-11-19T10:05:25;35.42;;;8.52;;
54937;SDS011;52756;52.826;6.214;2023-11-19T10:07:51;35.78;;;6.55;;
54937;SDS011;52756;52.826;6.214;2023-11-19T10:10:20;28.08;;;5.78;;
54937;SDS011;52756;52.826;6.214;2023-11-19T10:12:46;30.70;;;7.47;;
54937;SDS011;52756;52.826;6.214;2023-11-19T10:15:23;25.85;;;5.85;;
54937;SDS011;52756;52.826;6.214;2023-11-19T10:17:59;33.88;;;7.57;;
54937;SDS011;52756;52.826;6.214;2023-11-19T10:20:25;31.73;;;7.18;;
54937;SDS011;52756;52.826;6.214;2023-11-19T10:22:53;33.40;;;7.05;;
54937;SDS011;52756;52.826;6.214;2023-11-19T10:25:24;36.22;;;7.65;;
54937;SDS011;52756;52.826;6.214;2023-11-19T10:27:53;31.70;;;6.90;;
54937;SDS011;52756;52.826;6.214;2023-11-19T10:30:23;31.98;;;6.82;;
54937;SDS011;52756;52.826;6.214;2023-11-19T10:35:51;32.45;;;6.35;;
54937;SDS011;52756;52.826;6.214;2023-11-19T10:38:23;39.03;;;6.88;;
54937;SDS011;52756;52.826;6.214;2023-11-19T10:40:50;26.10;;;4.70;;
54937;SDS011;52756;52.826;6.214;2023-11-19T10:43:16;26.92;;;5.88;;
54937;SDS011;52756;52.826;6.214;2023-11-19T10:45:43;34.58;;;6.68;;
54937;SDS011;52756;52.826;6.214;2023-11-19T10:48:09;33.95;;;7.00;;
54937;SDS011;52756;52.826;6.214;2023-11-19T10:50:35;33.17;;;6.63;;
54937;SDS011;52756;52.826;6.214;2023-11-19T10:53:03;32.65;;;6.47;;
54937;SDS011;52756;52.826;6.214;2023-11-19T10:55:33;38.60;;;7.03;;
54937;SDS011;52756;52.826;6.214;2023-11-19T10:58:04;29.45;;;6.82;;
54937;SDS011;52756;52.826;6.214;2023-11-19T11:00:44;28.95;;;5.85;;
54937;SDS011;52756;52.826;6.214;2023-11-19T11:03:17;32.88;;;7.20;;
54937;SDS011;52756;52.826;6.214;2023-11-19T11:05:46;36.35;;;6.38;;
54937;SDS011;52756;52.826;6.214;2023-11-19T11:08:12;31.08;;;6.55;;
54937;SDS011;52756;52.826;6.214;2023-11-19T11:10:45;29.83;;;6.32;;
54937;SDS011;52756;52.826;6.214;2023-11-19T11:13:24;37.25;;;6.60;;
54937;SDS011;52756;52.826;6.214;2023-11-19T11:15:52;39.20;;;6.82;;
54937;SDS011;52756;52.826;6.214;2023-11-19T11:18:21;36.25;;;7.38;;
54937;SDS011;52756;52.826;6.214;2023-11-19T11:20:49;35.75;;;8.20;;
54937;SDS011;52756;52.826;6.214;2023-11-19T11:26:35;33.13;;;6.15;;
54937;SDS011;52756;52.826;6.214;2023-11-19T11:29:35;26.30;;;5.38;;
54937;SDS011;52756;52.826;6.214;2023-11-19T11:37:39;37.85;;;6.20;;
54937;SDS011;52756;52.826;6.214;2023-11-19T11:40:15;29.25;;;6.13;;
54937;SDS011;52756;52.826;6.214;2023-11-19T11:42:43;34.45;;;6.25;;
54937;SDS011;52756;52.826;6.214;2023-11-19T11:45:09;36.83;;;7.07;;
54937;SDS011;52756;52.826;6.214;2023-11-19T11:50:11;27.88;;;5.45;;
54937;SDS011;52756;52.826;6.214;2023-11-19T11:55:25;29.63;;;6.70;;
54937;SDS011;52756;52.826;6.214;2023-11-19T11:57:54;27.63;;;6.55;;
54937;SDS011;52756;52.826;6.214;2023-11-19T12:00:21;32.90;;;6.25;;
54937;SDS011;52756;52.826;6.214;2023-11-19T12:02:51;30.27;;;5.38;;
54937;SDS011;52756;52.826;6.214;2023-11-19T12:05:17;28.65;;;6.07;;
54937;SDS011;52756;52.826;6.214;2023-11-19T12:07:47;20.67;;;5.25;;
54937;SDS011;52756;52.826;6.214;2023-11-19T12:10:20;27.20;;;6.25;;
54937;SDS011;52756;52.826;6.214;2023-11-19T12:12:47;28.88;;;6.80;;
54937;SDS011;52756;52.826;6.214;2023-11-19T12:15:12;24.42;;;5.13;;
54937;SDS011;52756;52.826;6.214;2023-11-19T12:17:46;26.52;;;5.43;;
54937;SDS011;52756;52.826;6.214;2023-11-19T12:20:16;29.90;;;6.32;;
54937;SDS011;52756;52.826;6.214;2023-11-19T12:22:44;28.75;;;6.75;;
54937;SDS011;52756;52.826;6.214;2023-11-19T12:25:10;30.35;;;6.18;;
54937;SDS011;52756;52.826;6.214;2023-11-19T12:27:40;30.90;;;5.97;;
54937;SDS011;52756;52.826;6.214;2023-11-19T12:30:10;31.90;;;6.25;;
54937;SDS011;52756;52.826;6.214;2023-11-19T12:32:40;28.92;;;6.43;;
54937;SDS011;52756;52.826;6.214;2023-11-19T12:35:07;24.83;;;6.65;;
54937;SDS011;52756;52.826;6.214;2023-11-19T12:37:40;23.95;;;4.80;;
54937;SDS011;52756;52.826;6.214;2023-11-19T12:40:25;25.45;;;5.75;;
54937;SDS011;52756;52.826;6.214;2023-11-19T12:42:51;24.05;;;5.53;;
54937;SDS011;52756;52.826;6.214;2023-11-19T12:45:18;29.92;;;5.85;;
54937;SDS011;52756;52.826;6.214;2023-11-19T12:47:45;28.80;;;5.75;;
54937;SDS011;52756;52.826;6.214;2023-11-19T12:50:15;32.58;;;7.30;;
54937;SDS011;52756;52.826;6.214;2023-11-19T12:52:42;39.75;;;7.88;;
54937;SDS011;52756;52.826;6.214;2023-11-19T12:55:24;30.15;;;5.45;;
54937;SDS011;52756;52.826;6.214;2023-11-19T12:57:51;29.42;;;5.65;;
54937;SDS011;52756;52.826;6.214;2023-11-19T13:00:19;36.85;;;6.20;;
54937;SDS011;52756;52.826;6.214;2023-11-19T13:02:51;26.40;;;6.43;;
54937;SDS011;52756;52.826;6.214;2023-11-19T13:05:21;28.48;;;5.78;;
54937;SDS011;52756;52.826;6.214;2023-11-19T13:07:47;29.88;;;6.07;;
54937;SDS011;52756;52.826;6.214;2023-11-19T13:10:13;25.95;;;6.03;;
54937;SDS011;52756;52.826;6.214;2023-11-19T13:12:40;26.75;;;6.00;;
54937;SDS011;52756;52.826;6.214;2023-11-19T13:15:06;28.13;;;5.72;;
54937;SDS011;52756;52.826;6.214;2023-11-19T13:17:47;30.27;;;5.82;;
54937;SDS011;52756;52.826;6.214;2023-11-19T13:20:12;27.67;;;5.35;;
54937;SDS011;52756;52.826;6.214;2023-11-19T13:22:53;25.95;;;5.47;;
54937;SDS011;52756;52.826;6.214;2023-11-19T13:25:26;23.35;;;5.30;;
54937;SDS011;52756;52.826;6.214;2023-11-19T13:27:52;30.92;;;7.65;;
54937;SDS011;52756;52.826;6.214;2023-11-19T13:30:18;31.38;;;5.75;;
54937;SDS011;52756;52.826;6.214;2023-11-19T13:32:44;34.03;;;6.45;;
54937;SDS011;52756;52.826;6.214;2023-11-19T13:35:11;28.83;;;6.18;;
54937;SDS011;52756;52.826;6.214;2023-11-19T13:37:40;22.17;;;5.43;;
54937;SDS011;52756;52.826;6.214;2023-11-19T13:40:06;26.63;;;4.93;;
54937;SDS011;52756;52.826;6.214;2023-11-19T13:42:35;34.10;;;7.22;;
54937;SDS011;52756;52.826;6.214;2023-11-19T13:45:01;29.70;;;5.78;;
54937;SDS011;52756;52.826;6.214;2023-11-19T13:47:28;29.45;;;5.53;;
54937;SDS011;52756;52.826;6.214;2023-11-19T13:49:53;25.45;;;4.95;;
54937;SDS011;52756;52.826;6.214;2023-11-19T13:52:19;25.02;;;5.70;;
54937;SDS011;52756;52.826;6.214;2023-11-19T13:54:45;33.58;;;6.43;;
54937;SDS011;52756;52.826;6.214;2023-11-19T13:57:10;22.67;;;4.57;;
54937;SDS011;52756;52.826;6.214;2023-11-19T13:59:39;33.03;;;7.03;;
54937;SDS011;52756;52.826;6.214;2023-11-19T14:02:06;21.63;;;4.25;;
54937;SDS011;52756;52.826;6.214;2023-11-19T14:04:32;30.38;;;6.15;;
54937;SDS011;52756;52.826;6.214;2023-11-19T14:06:58;23.42;;;4.97;;
54937;SDS011;52756;52.826;6.214;2023-11-19T14:09:24;23.73;;;4.57;;
54937;SDS011;52756;52.826;6.214;2023-11-19T14:11:49;33.03;;;6.03;;
54937;SDS011;52756;52.826;6.214;2023-11-19T14:14:16;29.20;;;5.90;;
54937;SDS011;52756;52.826;6.214;2023-11-19T14:16:42;26.33;;;4.78;;
54937;SDS011;52756;52.826;6.214;2023-11-19T14:19:07;24.75;;;6.32;;
54937;SDS011;52756;52.826;6.214;2023-11-19T14:21:33;28.13;;;6.40;;
54937;SDS011;52756;52.826;6.214;2023-11-19T14:23:59;27.05;;;4.75;;
54937;SDS011;52756;52.826;6.214;2023-11-19T14:26:24;28.15;;;5.30;;
54937;SDS011;52756;52.826;6.214;2023-11-19T14:28:50;29.20;;;5.20;;
54937;SDS011;52756;52.826;6.214;2023-11-19T14:31:15;24.33;;;4.35;;
54937;SDS011;52756;52.826;6.214;2023-11-19T14:33:41;27.52;;;6.10;;
54937;SDS011;52756;52.826;6.214;2023-11-19T14:36:07;26.05;;;4.80;;
54937;SDS011;52756;52.826;6.214;2023-11-19T14:38:33;31.10;;;5.95;;
54937;SDS011;52756;52.826;6.214;2023-11-19T14:40:58;28.15;;;5.53;;
54937;SDS011;52756;52.826;6.214;2023-11-19T14:43:24;28.00;;;5.90;;
54937;SDS011;52756;52.826;6.214;2023-11-19T14:45:51;32.38;;;5.65;;
54937;SDS011;52756;52.826;6.214;2023-11-19T14:48:17;37.70;;;6.38;;
54937;SDS011;52756;52.826;6.214;2023-11-19T14:50:43;22.10;;;5.70;;